»·PEaware :: N8SR KVGT-67L

N8SR :: KVGT-67L

FLIGHT INFORMATION

Flight Status: Arrived
Operator: Privately registered:
United States
More flights under this callsign
Pilot: Jim C. (23814)
Aircraft: Unknown
(P28U)
More flights by this aircraft type
Origin: KVGT North Las Vegas
United States
Destination: 67L Mesquite
United States
More flights between these airports :: More routes between these airports
Route: +JONOT R2
File this flight plan on PilotEdge
Remarks: request RNAV02 approach
Altitude:
(Current/Filed)
9,000ft
Speed:
(Current/Filed)
150kts
Departed: 09-Feb-20 12:44 PM
Arrived: 09-Feb-20 01:26 PM
Distance/Time
Traveled:
66nm/0:42
Distance/Time
To Go:
Arrived

Flight Plot

Page will automatically refresh every two minutes.


Map Options




Map Legend


Flown Route
Filed Route
Departure Airport
Arrival Airport
Navaid (VOR, NDB)
Fix

Horizontal Profiles

Position Reports

Time Latitude Longitude Heading Altitude Ground
Speed
09-Feb-20 12:25 36.207739 -115.195916 281 2208ft 0kts
09-Feb-20 12:26 36.207739 -115.195916 281 2208ft 0kts
09-Feb-20 12:27 36.207739 -115.195916 281 2208ft 0kts
09-Feb-20 12:28 36.207739 -115.195916 281 2208ft 0kts
09-Feb-20 12:29 36.207739 -115.195916 281 2208ft 0kts
09-Feb-20 12:30 36.207739 -115.195916 281 2208ft 0kts
09-Feb-20 12:31 36.207739 -115.195916 281 2208ft 0kts
09-Feb-20 12:32 36.207739 -115.195916 281 2208ft 0kts
09-Feb-20 12:33 36.207739 -115.195916 281 2208ft 0kts
09-Feb-20 12:34 36.207739 -115.195916 281 2208ft 0kts
09-Feb-20 12:35 36.207739 -115.195916 281 2208ft 0kts
09-Feb-20 12:36 36.207739 -115.195916 281 2208ft 0kts
09-Feb-20 12:37 36.207739 -115.195916 281 2208ft 0kts
09-Feb-20 12:38 36.207778 -115.195660 73 2208ft 7kts
09-Feb-20 12:39 36.206452 -115.193423 133 2208ft 10kts
09-Feb-20 12:40 36.204726 -115.191183 86 2208ft 0kts
09-Feb-20 12:41 36.204726 -115.191182 85 2208ft 0kts
09-Feb-20 12:42 36.204726 -115.191180 84 2208ft 0kts
09-Feb-20 12:43 36.207068 -115.193082 314 2208ft 65kts
09-Feb-20 12:44 36.220492 -115.214651 277 3159ft 87kts
09-Feb-20 12:45 36.224790 -115.245836 277 4385ft 99kts
09-Feb-20 12:46 36.240856 -115.276120 311 5228ft 122kts
09-Feb-20 12:47 36.261346 -115.268700 118 5773ft 128kts
09-Feb-20 12:48 36.230362 -115.249924 157 6528ft 123kts
09-Feb-20 12:49 36.200439 -115.230364 148 7287ft 123kts
09-Feb-20 12:50 36.202302 -115.196915 52 8141ft 121kts
09-Feb-20 12:51 36.223162 -115.163607 52 8842ft 123kts
09-Feb-20 12:52 36.246561 -115.128120 44 9037ft 144kts
09-Feb-20 12:53 36.271984 -115.088369 54 9036ft 148kts
09-Feb-20 12:54 36.297379 -115.048588 54 9036ft 148kts
09-Feb-20 12:55 36.323078 -115.008863 45 9035ft 148kts
09-Feb-20 12:56 36.350910 -114.971111 51 9036ft 148kts
09-Feb-20 12:57 36.376159 -114.930897 52 9036ft 148kts
09-Feb-20 12:58 36.400950 -114.890054 53 9036ft 148kts
09-Feb-20 12:59 36.425648 -114.849219 53 9036ft 148kts
09-Feb-20 13:00 36.450336 -114.808191 53 9036ft 148kts
09-Feb-20 13:01 36.466025 -114.761004 68 9036ft 148kts
09-Feb-20 13:02 36.480894 -114.713385 68 9036ft 148kts
09-Feb-20 13:03 36.495902 -114.665629 68 9036ft 148kts
09-Feb-20 13:04 36.510886 -114.617936 68 9036ft 148kts
09-Feb-20 13:05 36.525851 -114.570238 68 9036ft 148kts
09-Feb-20 13:06 36.541133 -114.522587 67 9036ft 148kts
09-Feb-20 13:07 36.556427 -114.475136 68 9036ft 148kts
09-Feb-20 13:08 36.571362 -114.427430 68 9036ft 148kts
09-Feb-20 13:09 36.587050 -114.377118 68 8468ft 160kts
09-Feb-20 13:10 36.608871 -114.331404 12 7759ft 164kts
09-Feb-20 13:11 36.619429 -114.370422 239 7006ft 158kts
09-Feb-20 13:12 36.596119 -114.416455 238 6485ft 156kts
09-Feb-20 13:13 36.568533 -114.450109 164 6420ft 147kts
09-Feb-20 13:14 36.576903 -114.409177 77 6435ft 146kts
09-Feb-20 13:15 36.590116 -114.361395 60 6435ft 146kts
09-Feb-20 13:16 36.610436 -114.315119 56 5972ft 154kts
09-Feb-20 13:17 36.636194 -114.273400 59 5603ft 152kts
09-Feb-20 13:19 36.657887 -114.228316 55 5280ft 151kts
09-Feb-20 13:20 36.683977 -114.187453 51 4980ft 151kts
09-Feb-20 13:21 36.711193 -114.154729 36 4931ft 109kts
09-Feb-20 13:22 36.735886 -114.132591 35 4682ft 119kts
09-Feb-20 13:23 36.763379 -114.108475 35 3986ft 122kts
09-Feb-20 13:24 36.789810 -114.085665 31 3285ft 100kts
09-Feb-20 13:25 36.813199 -114.070141 31 2584ft 87kts
09-Feb-20 13:26 36.830683 -114.057749 32 1978ft 32kts
09-Feb-20 13:27 36.832034 -114.057737 304 1978ft 0kts
09-Feb-20 13:28 36.832058 -114.057781 304 1978ft 0kts
09-Feb-20 13:29 36.832069 -114.057801 303 1978ft 0kts
09-Feb-20 13:30 36.832168 -114.058177 126 1978ft 0kts

Navigation Log

Ident Type
Flight plan parsing failed, navigation log unavailable